createdAt,value
2018-09-21T00:02:26.627Z,16.20
2018-09-21T00:04:55.684Z,16.20
2018-09-21T00:07:24.650Z,16.20
2018-09-21T00:09:53.565Z,16.20
2018-09-21T00:12:22.699Z,16.20
2018-09-21T00:14:52.002Z,16.20
2018-09-21T00:17:20.888Z,16.20
2018-09-21T00:19:50.295Z,16.30
2018-09-21T00:22:19.199Z,16.30
2018-09-21T00:24:48.611Z,16.30
2018-09-21T00:27:17.558Z,16.30
2018-09-21T00:29:46.448Z,16.30
2018-09-21T00:32:15.442Z,16.40
2018-09-21T00:34:44.851Z,16.40
2018-09-21T00:37:13.787Z,16.40
2018-09-21T00:39:42.652Z,16.40
2018-09-21T00:42:11.908Z,16.40
2018-09-21T00:44:40.979Z,16.40
2018-09-21T00:47:09.877Z,16.40
2018-09-21T00:49:39.078Z,16.50
2018-09-21T00:52:08.251Z,16.50
2018-09-21T00:54:37.295Z,16.50
2018-09-21T00:57:06.664Z,16.50
2018-09-21T00:59:35.595Z,16.50
2018-09-21T01:02:04.569Z,16.50
2018-09-21T01:04:38.691Z,16.60
2018-09-21T01:07:08.150Z,16.60
2018-09-21T01:09:37.389Z,16.60
2018-09-21T01:12:06.374Z,16.60
2018-09-21T01:14:35.855Z,16.60
2018-09-21T01:17:05.014Z,16.60
2018-09-21T01:19:33.880Z,16.60
2018-09-21T01:22:03.015Z,16.70
2018-09-21T01:24:32.171Z,16.70
2018-09-21T01:27:01.451Z,16.70
2018-09-21T01:29:30.513Z,16.70
2018-09-21T01:31:59.527Z,16.70
2018-09-21T01:34:28.739Z,16.70
2018-09-21T01:36:57.751Z,16.70
2018-09-21T01:39:26.651Z,16.70
2018-09-21T01:41:55.724Z,16.70
2018-09-21T01:44:24.900Z,16.70
2018-09-21T01:46:53.804Z,16.70
2018-09-21T01:49:23.235Z,16.70
2018-09-21T01:51:52.414Z,16.70
2018-09-21T01:54:21.393Z,16.70
2018-09-21T01:56:50.364Z,16.70
2018-09-21T01:59:19.480Z,16.70
2018-09-21T02:01:48.495Z,16.70
2018-09-21T02:04:17.667Z,16.80
2018-09-21T02:06:46.635Z,16.80
2018-09-21T02:09:15.575Z,16.80
2018-09-21T02:11:44.811Z,16.80
2018-09-21T02:14:14.114Z,16.80
2018-09-21T02:16:43.276Z,16.90
2018-09-21T02:19:12.503Z,16.90
2018-09-21T02:21:41.968Z,16.90
2018-09-21T02:24:10.983Z,16.90
2018-09-21T02:26:40.107Z,16.90
2018-09-21T02:29:09.274Z,17.00
2018-09-21T02:31:38.261Z,17.00
2018-09-21T02:34:07.540Z,17.00
2018-09-21T02:36:37.123Z,17.00
2018-09-21T02:39:08.300Z,17.00
2018-09-21T02:41:37.660Z,17.00
2018-09-21T02:44:07.014Z,17.00
2018-09-21T02:46:36.607Z,17.10
2018-09-21T02:49:05.744Z,17.10
2018-09-21T02:51:35.263Z,17.10
2018-09-21T02:54:04.456Z,17.10
2018-09-21T02:56:33.679Z,17.10
2018-09-21T02:59:02.691Z,17.10
2018-09-21T03:01:31.765Z,17.20
2018-09-21T03:04:01.136Z,17.10
2018-09-21T03:06:30.152Z,17.20
2018-09-21T03:08:59.300Z,17.20
2018-09-21T03:11:28.499Z,17.20
2018-09-21T03:13:57.780Z,17.20
2018-09-21T03:16:27.503Z,17.20
2018-09-21T03:18:56.963Z,17.20
2018-09-21T03:21:25.956Z,17.20
2018-09-21T03:23:55.439Z,17.30
2018-09-21T03:26:25.044Z,17.30
2018-09-21T03:28:54.024Z,17.30
2018-09-21T03:31:23.075Z,17.30
2018-09-21T03:33:52.139Z,17.30
2018-09-21T03:36:21.353Z,17.30
2018-09-21T03:38:50.347Z,17.30
2018-09-21T03:41:19.544Z,17.30
2018-09-21T03:43:48.524Z,17.30
2018-09-21T03:46:17.575Z,17.30
2018-09-21T03:48:46.813Z,17.30
2018-09-21T03:51:15.827Z,17.30
2018-09-21T03:53:44.845Z,17.30
2018-09-21T03:56:14.157Z,17.30
2018-09-21T03:58:43.115Z,17.40
2018-09-21T04:01:12.306Z,17.40
2018-09-21T04:03:41.393Z,17.40
2018-09-21T04:06:10.471Z,17.40
2018-09-21T04:08:39.597Z,17.40
2018-09-21T04:11:08.888Z,17.40
2018-09-21T04:13:37.907Z,17.40
2018-09-21T04:16:06.753Z,17.30
2018-09-21T04:18:35.753Z,17.30
2018-09-21T04:21:04.867Z,17.30
2018-09-21T04:23:34.104Z,17.30
2018-09-21T04:26:03.276Z,17.30
2018-09-21T04:28:37.771Z,17.30
2018-09-21T04:31:21.370Z,17.30
2018-09-21T04:33:50.920Z,17.40
2018-09-21T04:36:20.148Z,17.40
2018-09-21T04:38:49.716Z,17.40
2018-09-21T04:41:18.764Z,17.40
2018-09-21T04:43:48.002Z,17.40
2018-09-21T04:46:17.308Z,17.50
2018-09-21T04:51:21.943Z,17.50
2018-09-21T04:53:51.408Z,17.50
2018-09-21T04:56:20.479Z,17.50
2018-09-21T04:58:53.231Z,17.50
2018-09-21T05:01:22.613Z,17.50
2018-09-21T05:03:51.905Z,17.50
2018-09-21T05:06:21.421Z,17.50
2018-09-21T05:08:50.636Z,17.50
2018-09-21T05:11:20.856Z,17.50
2018-09-21T05:13:50.868Z,17.60
2018-09-21T05:16:20.305Z,17.60
2018-09-21T05:18:49.759Z,17.60
2018-09-21T05:21:18.995Z,17.60
2018-09-21T05:23:47.969Z,17.60
2018-09-21T05:26:17.069Z,17.60
2018-09-21T05:28:48.234Z,17.70
2018-09-21T05:31:17.796Z,17.70
2018-09-21T05:33:47.028Z,17.70
2018-09-21T05:36:16.047Z,17.60
2018-09-21T05:38:45.810Z,17.70
2018-09-21T05:41:15.029Z,17.70
2018-09-21T05:43:44.404Z,17.60
2018-09-21T05:46:13.476Z,17.70
2018-09-21T05:48:43.013Z,17.70
2018-09-21T05:51:12.026Z,17.70
2018-09-21T05:53:41.304Z,17.70
2018-09-21T05:56:10.828Z,17.80
2018-09-21T05:58:39.907Z,17.80
2018-09-21T06:01:09.136Z,17.80
2018-09-21T06:03:38.225Z,17.90
2018-09-21T06:06:08.085Z,17.90
2018-09-21T06:08:37.193Z,18.00
2018-09-21T06:11:06.319Z,18.00
2018-09-21T06:13:35.315Z,18.10
2018-09-21T06:16:04.402Z,18.10
2018-09-21T06:18:33.619Z,18.20
2018-09-21T06:21:02.874Z,18.20
2018-09-21T06:23:31.925Z,18.30
2018-09-21T06:26:01.471Z,18.30
2018-09-21T06:28:30.460Z,18.30
2018-09-21T06:30:59.617Z,18.30
2018-09-21T06:33:28.974Z,18.30
2018-09-21T06:35:58.096Z,18.30
2018-09-21T06:38:28.285Z,18.30
2018-09-21T06:40:57.878Z,18.40
2018-09-21T06:43:27.656Z,18.40
2018-09-21T06:45:57.536Z,18.40
2018-09-21T06:48:26.803Z,18.40
2018-09-21T06:50:55.871Z,18.50
2018-09-21T06:53:24.993Z,18.50
2018-09-21T06:55:54.565Z,18.50
2018-09-21T06:58:23.566Z,18.60
2018-09-21T07:00:52.568Z,18.60
2018-09-21T07:03:21.788Z,18.60
2018-09-21T07:05:50.987Z,18.60
2018-09-21T07:08:19.972Z,18.70
2018-09-21T07:10:49.148Z,18.80
2018-09-21T07:13:18.256Z,18.80
2018-09-21T07:15:47.284Z,18.90
2018-09-21T07:18:16.601Z,18.90
2018-09-21T07:20:46.580Z,18.80
2018-09-21T07:23:15.627Z,18.80
2018-09-21T07:25:45.220Z,18.70
2018-09-21T07:28:14.388Z,18.70
2018-09-21T07:30:43.608Z,18.70
2018-09-21T07:33:12.856Z,18.70
2018-09-21T07:35:41.910Z,18.70
2018-09-21T07:38:10.869Z,18.70
2018-09-21T07:40:40.455Z,18.80
2018-09-21T07:43:09.679Z,18.80
2018-09-21T07:45:40.232Z,18.80
2018-09-21T07:48:10.295Z,18.80
2018-09-21T07:50:39.486Z,18.90
2018-09-21T07:53:08.450Z,18.90
2018-09-21T07:55:37.717Z,18.90
2018-09-21T08:01:00.133Z,19.00
2018-09-21T08:03:29.319Z,19.10
2018-09-21T08:05:58.483Z,19.10
2018-09-21T08:08:28.555Z,19.20
2018-09-21T08:10:57.511Z,19.20
2018-09-21T08:13:26.649Z,19.20
2018-09-21T08:15:55.794Z,19.30
2018-09-21T08:18:26.122Z,19.30
2018-09-21T08:20:55.428Z,19.20
2018-09-21T08:23:24.604Z,19.30
2018-09-21T08:25:53.586Z,19.40
2018-09-21T08:28:22.676Z,19.40
2018-09-21T08:30:51.987Z,19.50
2018-09-21T08:33:21.160Z,19.50
2018-09-21T08:35:50.132Z,19.50
2018-09-21T08:38:19.540Z,19.50
2018-09-21T08:40:48.618Z,19.40
2018-09-21T08:43:17.674Z,19.30
2018-09-21T08:45:47.480Z,19.30
2018-09-21T08:48:16.721Z,19.40
2018-09-21T08:50:45.732Z,19.40
2018-09-21T08:53:15.027Z,19.50
2018-09-21T08:55:44.039Z,19.60
2018-09-21T08:58:13.235Z,19.70
2018-09-21T09:00:42.654Z,19.80
2018-09-21T09:03:11.738Z,19.80
2018-09-21T09:05:41.164Z,19.90
2018-09-21T09:08:10.743Z,19.90
2018-09-21T09:10:40.099Z,19.90
2018-09-21T09:13:09.269Z,20.00
2018-09-21T09:15:38.644Z,20.00
2018-09-21T09:18:07.615Z,20.10
2018-09-21T09:20:36.652Z,20.20
2018-09-21T09:23:05.855Z,20.00
2018-09-21T09:25:34.831Z,20.10
2018-09-21T11:57:08.023Z,20.20
2018-09-21T11:59:37.317Z,18.10
2018-09-21T12:02:07.333Z,17.90
2018-09-21T12:04:36.920Z,17.80
2018-09-21T12:07:06.788Z,17.80
2018-09-21T12:09:38.089Z,17.80
2018-09-21T12:12:07.201Z,17.70
2018-09-21T12:27:56.711Z,17.60
2018-09-21T12:30:25.747Z,16.90
2018-09-21T12:32:55.011Z,16.90
2018-09-21T12:35:24.273Z,16.90
2018-09-21T12:37:53.409Z,16.90
2018-09-21T12:40:22.328Z,16.70
2018-09-21T12:42:51.343Z,16.80
2018-09-21T12:45:20.231Z,16.70
2018-09-21T12:47:49.173Z,16.70
2018-09-21T12:50:18.248Z,16.60
2018-09-21T12:52:47.121Z,16.50
2018-09-21T12:55:16.203Z,16.50
2018-09-21T12:57:45.677Z,16.40
2018-09-21T13:00:14.559Z,16.40
2018-09-21T13:02:43.478Z,16.40
2018-09-21T13:05:12.500Z,16.20
2018-09-21T13:07:41.348Z,16.20
2018-09-21T13:10:10.229Z,16.20
2018-09-21T13:12:39.199Z,16.20
2018-09-21T13:15:08.067Z,16.20
2018-09-21T13:17:36.939Z,16.30
2018-09-21T13:20:06.287Z,16.30
2018-09-21T13:22:35.199Z,16.30
2018-09-21T13:25:04.127Z,16.30
2018-09-21T13:27:33.211Z,16.40
2018-09-21T13:30:02.143Z,16.40
2018-09-21T13:32:31.126Z,16.40
2018-09-21T13:35:00.086Z,16.30
2018-09-21T13:37:29.080Z,16.40
2018-09-21T13:39:57.966Z,16.30
2018-09-21T13:42:26.908Z,16.30
2018-09-21T13:44:55.799Z,16.20
2018-09-21T13:47:24.699Z,16.10
2018-09-21T13:49:53.916Z,16.00
2018-09-21T13:52:22.819Z,16.00
2018-09-21T13:54:51.695Z,16.00
2018-09-21T13:57:20.807Z,16.00
2018-09-21T13:59:49.891Z,15.90
2018-09-21T14:02:18.746Z,15.90
2018-09-21T14:04:47.750Z,15.90
2018-09-21T14:07:16.583Z,16.00
2018-09-21T14:09:45.488Z,16.00
2018-09-21T14:12:14.522Z,16.00
2018-09-21T14:14:43.357Z,16.00
2018-09-21T14:17:12.404Z,16.20
2018-09-21T14:19:41.478Z,16.20
2018-09-21T14:22:10.366Z,16.30
2018-09-21T14:24:39.263Z,16.30
2018-09-21T14:27:08.260Z,16.30
2018-09-21T14:29:37.179Z,16.30
2018-09-21T14:32:06.026Z,16.30
2018-09-21T14:34:35.203Z,16.20
2018-09-21T14:37:04.203Z,16.20
2018-09-21T14:39:33.092Z,16.20
2018-09-21T14:42:02.191Z,16.30
2018-09-21T14:44:31.052Z,16.20
2018-09-21T14:46:59.959Z,16.20
2018-09-21T14:49:28.994Z,16.30
2018-09-21T14:51:57.906Z,16.30
2018-09-21T14:54:26.796Z,16.30
2018-09-21T14:56:56.141Z,16.10
2018-09-21T14:59:25.039Z,16.00
2018-09-21T15:01:54.937Z,16.00
2018-09-21T15:04:24.054Z,16.00
2018-09-21T15:06:52.920Z,16.00
2018-09-21T15:09:21.818Z,16.00
2018-09-21T15:11:51.219Z,16.00
2018-09-21T15:14:20.126Z,15.90
2018-09-21T15:16:49.051Z,15.80
2018-09-21T15:19:18.095Z,15.70
2018-09-21T15:21:46.931Z,15.60
2018-09-21T15:24:15.811Z,15.60
2018-09-21T15:26:45.135Z,15.50
2018-09-21T15:29:13.947Z,15.70
2018-09-21T15:31:42.787Z,15.90
2018-09-21T15:34:12.151Z,16.10
2018-09-21T15:36:41.005Z,16.20
2018-09-21T15:39:11.671Z,16.20
2018-09-21T15:41:41.336Z,16.10
2018-09-21T15:44:10.412Z,16.10
2018-09-21T15:46:39.368Z,16.10
2018-09-21T15:49:08.459Z,16.10
2018-09-21T15:51:37.584Z,16.10
2018-09-21T15:54:06.459Z,16.00
2018-09-21T15:56:35.412Z,16.00
2018-09-21T15:59:05.428Z,16.00
2018-09-21T16:01:34.361Z,15.90
2018-09-21T16:04:03.585Z,15.80
2018-09-21T16:06:34.271Z,15.80
2018-09-21T16:09:05.739Z,15.70
2018-09-21T16:11:34.863Z,15.70
2018-09-21T16:14:04.059Z,15.70
2018-09-21T16:16:33.047Z,15.60
2018-09-21T16:19:02.231Z,15.50
2018-09-21T16:21:31.131Z,15.40
2018-09-21T16:24:00.127Z,15.20
2018-09-21T16:26:29.268Z,15.10
2018-09-21T16:28:58.268Z,14.90
2018-09-21T16:31:28.324Z,14.80
2018-09-21T16:33:57.651Z,14.70
2018-09-21T16:36:26.749Z,14.70
2018-09-21T16:38:56.253Z,14.60
2018-09-21T16:41:25.533Z,14.50
2018-09-21T16:43:55.694Z,14.50
2018-09-21T16:46:24.856Z,14.40
2018-09-21T16:48:54.261Z,14.40
2018-09-21T16:51:23.615Z,14.40
2018-09-21T16:53:52.640Z,14.40
2018-09-21T16:56:21.785Z,14.40
2018-09-21T16:58:50.904Z,14.40
2018-09-21T17:01:20.339Z,14.50
2018-09-21T17:03:49.395Z,14.40
2018-09-21T17:06:19.468Z,14.40
2018-09-21T17:08:48.557Z,14.30
2018-09-21T17:11:17.826Z,14.30
2018-09-21T17:13:46.713Z,14.20
2018-09-21T17:16:15.617Z,14.20
2018-09-21T17:18:44.926Z,14.10
2018-09-21T17:21:13.983Z,14.10
2018-09-21T17:23:43.240Z,14.00
2018-09-21T17:26:12.418Z,14.00
2018-09-21T17:28:41.472Z,14.00
2018-09-21T17:31:10.457Z,14.00
2018-09-21T17:33:39.626Z,13.90
2018-09-21T17:36:08.932Z,14.00
2018-09-21T17:38:38.152Z,13.90
2018-09-21T17:41:07.211Z,13.90
2018-09-21T17:43:36.167Z,13.90
2018-09-21T17:46:05.392Z,13.90
2018-09-21T17:48:34.607Z,13.60
2018-09-21T17:51:03.623Z,13.60
2018-09-21T17:53:32.657Z,13.40
2018-09-21T17:56:01.934Z,13.40
2018-09-21T17:58:31.068Z,13.30
2018-09-21T18:01:00.064Z,13.40
2018-09-21T18:03:29.116Z,13.30
2018-09-21T18:05:58.226Z,13.30
2018-09-21T18:08:32.188Z,13.30
2018-09-21T18:11:01.832Z,13.30
2018-09-21T18:13:30.842Z,13.30
2018-09-21T18:15:59.979Z,13.30
2018-09-21T18:18:28.903Z,13.30
2018-09-21T18:20:57.964Z,13.40
2018-09-21T18:23:27.148Z,13.40
2018-09-21T18:25:57.017Z,13.40
2018-09-21T18:28:26.039Z,13.50
2018-09-21T18:30:55.501Z,13.50
2018-09-21T18:33:25.454Z,13.60
2018-09-21T18:35:54.564Z,13.60
2018-09-21T18:38:23.675Z,13.60
2018-09-21T18:40:52.914Z,13.60
2018-09-21T18:43:21.812Z,13.70
2018-09-21T18:45:51.461Z,13.70
2018-09-21T18:48:21.180Z,13.70
2018-09-21T18:50:50.529Z,13.70
2018-09-21T18:53:19.671Z,13.70
2018-09-21T18:55:48.876Z,13.70
2018-09-21T18:58:17.844Z,13.70
2018-09-21T19:00:47.156Z,13.70
2018-09-21T19:03:16.318Z,13.70
2018-09-21T19:05:45.320Z,13.70
2018-09-21T19:08:14.683Z,13.60
2018-09-21T19:10:43.676Z,13.40
2018-09-21T19:13:12.646Z,13.40
2018-09-21T19:15:41.836Z,13.20
2018-09-21T19:18:10.884Z,13.20
2018-09-21T19:20:39.829Z,13.20
2018-09-21T19:23:08.795Z,13.30
2018-09-21T19:25:37.790Z,13.30
2018-09-21T19:28:06.998Z,13.30
2018-09-21T19:30:36.165Z,13.30
2018-09-21T19:33:05.238Z,13.30
2018-09-21T19:35:34.267Z,13.30
2018-09-21T19:38:03.251Z,13.20
2018-09-21T19:40:32.160Z,13.20
2018-09-21T19:43:01.325Z,13.20
2018-09-21T19:45:30.612Z,13.10
2018-09-21T19:47:59.536Z,13.10
2018-09-21T19:50:28.584Z,13.10
2018-09-21T19:52:57.719Z,13.00
2018-09-21T19:55:26.814Z,13.00
2018-09-21T19:57:55.750Z,12.90
2018-09-21T20:00:24.899Z,12.90
2018-09-21T20:02:53.836Z,12.90
2018-09-21T20:05:22.768Z,12.90
2018-09-21T20:07:52.011Z,12.90
2018-09-21T20:10:20.988Z,12.90
2018-09-21T20:12:50.939Z,12.90
2018-09-21T20:15:20.096Z,12.90
2018-09-21T20:17:49.279Z,12.80
2018-09-21T20:20:18.179Z,12.90
2018-09-21T20:22:47.263Z,12.80
2018-09-21T20:25:16.204Z,12.80
2018-09-21T20:27:51.699Z,12.80
2018-09-21T20:30:25.760Z,12.80
2018-09-21T20:33:00.091Z,12.90
2018-09-21T20:35:29.284Z,12.80
2018-09-21T20:37:58.256Z,12.80
2018-09-21T20:40:27.186Z,12.80
2018-09-21T20:42:56.383Z,12.70
2018-09-21T20:45:25.472Z,12.70
2018-09-21T20:47:54.437Z,12.70
2018-09-21T20:50:23.859Z,12.70
2018-09-21T20:52:52.864Z,12.70
2018-09-21T20:55:21.915Z,12.70
2018-09-21T20:57:50.976Z,12.60
2018-09-21T21:00:19.879Z,12.60
2018-09-21T21:02:48.800Z,12.50
2018-09-21T21:05:18.299Z,12.60
2018-09-21T21:07:47.382Z,12.60
2018-09-21T21:10:16.307Z,12.60
2018-09-21T21:12:45.440Z,12.60
2018-09-21T21:15:14.494Z,12.60
2018-09-21T21:17:43.379Z,12.60
2018-09-21T21:20:12.511Z,12.50
2018-09-21T21:22:41.596Z,12.60
2018-09-21T21:25:10.716Z,12.60
2018-09-21T21:27:39.779Z,12.60
2018-09-21T21:30:08.811Z,12.60
2018-09-21T21:32:37.763Z,12.60
2018-09-21T21:35:06.900Z,12.60
2018-09-21T21:37:35.800Z,12.60
2018-09-21T21:40:04.995Z,12.60
2018-09-21T21:42:34.176Z,12.60
2018-09-21T21:45:03.235Z,12.60
2018-09-21T21:47:32.460Z,12.60
2018-09-21T21:50:01.680Z,12.60
2018-09-21T21:52:30.768Z,12.60
2018-09-21T21:54:59.654Z,12.60
2018-09-21T21:57:28.764Z,12.60
2018-09-21T21:59:57.876Z,12.60
2018-09-21T22:02:27.053Z,12.50
2018-09-21T22:04:56.189Z,12.50
2018-09-21T22:07:25.077Z,12.50
2018-09-21T22:09:53.960Z,12.40
2018-09-21T22:12:27.935Z,12.30
2018-09-21T22:14:57.127Z,12.30
2018-09-21T22:17:26.215Z,12.20
2018-09-21T22:19:55.083Z,12.10
2018-09-21T22:22:24.099Z,12.20
2018-09-21T22:24:52.980Z,12.10
2018-09-21T22:27:21.939Z,12.20
2018-09-21T22:29:51.027Z,12.10
2018-09-21T22:32:19.959Z,12.20
2018-09-21T22:34:48.969Z,12.20
2018-09-21T22:37:18.428Z,12.20
2018-09-21T22:39:47.380Z,12.20
2018-09-21T22:42:16.294Z,12.20
2018-09-21T22:44:46.360Z,12.30
2018-09-21T22:47:15.380Z,12.30
2018-09-21T22:49:44.334Z,12.30
2018-09-21T22:52:13.579Z,12.40
2018-09-21T22:54:42.511Z,12.40
2018-09-21T22:57:11.567Z,12.50
2018-09-21T22:59:40.755Z,12.50
2018-09-21T23:02:09.704Z,12.60
2018-09-21T23:04:38.811Z,12.60
2018-09-21T23:07:08.231Z,12.60
2018-09-21T23:09:37.364Z,12.70
2018-09-21T23:12:06.300Z,12.60
2018-09-21T23:14:35.383Z,12.60
2018-09-21T23:17:04.482Z,12.60
2018-09-21T23:19:33.495Z,12.50
2018-09-21T23:22:02.983Z,12.50
2018-09-21T23:24:31.971Z,12.40
2018-09-21T23:27:00.958Z,12.40
2018-09-21T23:29:30.320Z,12.40
2018-09-21T23:31:59.274Z,12.40
2018-09-21T23:34:28.239Z,12.40
2018-09-21T23:36:57.354Z,12.40
2018-09-21T23:39:26.556Z,12.40
2018-09-21T23:41:55.476Z,12.40
2018-09-21T23:44:24.505Z,12.40
2018-09-21T23:46:53.493Z,12.40
2018-09-21T23:49:22.507Z,12.40
2018-09-21T23:51:51.518Z,12.40
2018-09-21T23:54:20.394Z,12.50
2018-09-21T23:56:49.416Z,12.50
2018-09-21T23:59:18.371Z,12.50
